sensor_id;sensor_type;location;lat;lon;timestamp;temperature;humidity
16732;DHT22;8484;50.904;9.192;2022-11-20T00:01:47;-4.50;99.90
16732;DHT22;8484;50.904;9.192;2022-11-20T00:04:32;-4.40;99.90
16732;DHT22;8484;50.904;9.192;2022-11-20T00:07:18;-4.30;99.90
16732;DHT22;8484;50.904;9.192;2022-11-20T00:10:04;-4.10;99.90
16732;DHT22;8484;50.904;9.192;2022-11-20T00:12:50;-4.00;99.90
16732;DHT22;8484;50.904;9.192;2022-11-20T00:15:37;-4.10;99.90
16732;DHT22;8484;50.904;9.192;2022-11-20T00:18:22;-4.20;99.90
16732;DHT22;8484;50.904;9.192;2022-11-20T00:21:12;-4.00;99.90
16732;DHT22;8484;50.904;9.192;2022-11-20T00:23:57;-3.90;99.90
16732;DHT22;8484;50.904;9.192;2022-11-20T00:26:43;-4.00;99.90
16732;DHT22;8484;50.904;9.192;2022-11-20T00:29:29;-4.00;99.90
16732;DHT22;8484;50.904;9.192;2022-11-20T00:32:16;-4.00;99.90
16732;DHT22;8484;50.904;9.192;2022-11-20T00:35:01;-3.70;99.90
16732;DHT22;8484;50.904;9.192;2022-11-20T00:37:47;-3.90;99.90
16732;DHT22;8484;50.904;9.192;2022-11-20T00:40:32;-3.70;99.90
16732;DHT22;8484;50.904;9.192;2022-11-20T00:43:18;-3.80;99.90
16732;DHT22;8484;50.904;9.192;2022-11-20T00:46:05;-3.90;99.90
16732;DHT22;8484;50.904;9.192;2022-11-20T00:48:53;-4.00;99.90
16732;DHT22;8484;50.904;9.192;2022-11-20T00:51:38;-4.00;99.90
16732;DHT22;8484;50.904;9.192;2022-11-20T00:54:23;-4.10;99.90
16732;DHT22;8484;50.904;9.192;2022-11-20T00:57:09;-3.90;99.90
16732;DHT22;8484;50.904;9.192;2022-11-20T00:59:55;-3.60;99.90
16732;DHT22;8484;50.904;9.192;2022-11-20T01:02:40;-3.70;99.90
16732;DHT22;8484;50.904;9.192;2022-11-20T01:05:27;-3.40;99.90
16732;DHT22;8484;50.904;9.192;2022-11-20T01:08:12;-3.40;99.90
16732;DHT22;8484;50.904;9.192;2022-11-20T01:10:59;-3.50;99.90
16732;DHT22;8484;50.904;9.192;2022-11-20T01:13:46;-3.30;99.90
16732;DHT22;8484;50.904;9.192;2022-11-20T01:16:35;-3.00;99.90
16732;DHT22;8484;50.904;9.192;2022-11-20T01:19:22;-3.30;99.90
16732;DHT22;8484;50.904;9.192;2022-11-20T01:22:09;-3.30;99.90
16732;DHT22;8484;50.904;9.192;2022-11-20T01:24:55;-3.30;99.90
16732;DHT22;8484;50.904;9.192;2022-11-20T01:27:40;-3.10;99.90
16732;DHT22;8484;50.904;9.192;2022-11-20T01:30:26;-3.10;99.90
16732;DHT22;8484;50.904;9.192;2022-11-20T01:33:11;-3.10;99.90
16732;DHT22;8484;50.904;9.192;2022-11-20T01:36:04;-3.00;99.90
16732;DHT22;8484;50.904;9.192;2022-11-20T01:38:53;-3.00;99.90
16732;DHT22;8484;50.904;9.192;2022-11-20T01:41:39;-3.20;99.90
16732;DHT22;8484;50.904;9.192;2022-11-20T01:44:54;-3.20;99.90
16732;DHT22;8484;50.904;9.192;2022-11-20T01:47:41;-3.00;99.90
16732;DHT22;8484;50.904;9.192;2022-11-20T01:50:29;-3.10;99.90
16732;DHT22;8484;50.904;9.192;2022-11-20T01:53:17;-3.00;99.90
16732;DHT22;8484;50.904;9.192;2022-11-20T01:56:07;-3.30;99.90
16732;DHT22;8484;50.904;9.192;2022-11-20T01:58:57;-3.10;99.90
16732;DHT22;8484;50.904;9.192;2022-11-20T02:01:43;-3.00;99.90
16732;DHT22;8484;50.904;9.192;2022-11-20T02:04:29;-3.20;99.90
16732;DHT22;8484;50.904;9.192;2022-11-20T02:07:15;-3.30;99.90
16732;DHT22;8484;50.904;9.192;2022-11-20T02:10:01;-3.20;99.90
16732;DHT22;8484;50.904;9.192;2022-11-20T02:12:48;-2.90;99.90
16732;DHT22;8484;50.904;9.192;2022-11-20T02:15:52;-3.00;99.90
16732;DHT22;8484;50.904;9.192;2022-11-20T02:18:39;-3.00;99.90
16732;DHT22;8484;50.904;9.192;2022-11-20T02:21:30;-2.90;99.90
16732;DHT22;8484;50.904;9.192;2022-11-20T02:24:20;-2.40;99.90
16732;DHT22;8484;50.904;9.192;2022-11-20T02:27:08;-3.00;99.90
16732;DHT22;8484;50.904;9.192;2022-11-20T02:29:57;-2.90;99.90
16732;DHT22;8484;50.904;9.192;2022-11-20T02:32:44;-2.70;99.90
16732;DHT22;8484;50.904;9.192;2022-11-20T02:35:41;-3.10;99.90
16732;DHT22;8484;50.904;9.192;2022-11-20T02:38:27;-3.20;99.90
16732;DHT22;8484;50.904;9.192;2022-11-20T02:41:14;-3.20;99.90
16732;DHT22;8484;50.904;9.192;2022-11-20T02:43:59;-3.20;99.90
16732;DHT22;8484;50.904;9.192;2022-11-20T02:46:45;-3.30;99.90
16732;DHT22;8484;50.904;9.192;2022-11-20T02:49:30;-3.30;99.90
16732;DHT22;8484;50.904;9.192;2022-11-20T02:52:16;-3.20;99.90
16732;DHT22;8484;50.904;9.192;2022-11-20T02:55:01;-3.20;99.90
16732;DHT22;8484;50.904;9.192;2022-11-20T02:57:49;-3.10;99.90
16732;DHT22;8484;50.904;9.192;2022-11-20T03:00:34;-2.90;99.90
16732;DHT22;8484;50.904;9.192;2022-11-20T03:03:20;-2.80;99.90
16732;DHT22;8484;50.904;9.192;2022-11-20T03:06:06;-2.80;99.90
16732;DHT22;8484;50.904;9.192;2022-11-20T03:08:51;-2.90;99.90
16732;DHT22;8484;50.904;9.192;2022-11-20T03:11:37;-2.90;99.90
16732;DHT22;8484;50.904;9.192;2022-11-20T03:14:24;-2.80;99.90
16732;DHT22;8484;50.904;9.192;2022-11-20T03:17:09;-2.70;99.90
16732;DHT22;8484;50.904;9.192;2022-11-20T03:19:55;-2.80;99.90
16732;DHT22;8484;50.904;9.192;2022-11-20T03:22:41;-2.70;99.90
16732;DHT22;8484;50.904;9.192;2022-11-20T03:25:27;-2.50;99.90
16732;DHT22;8484;50.904;9.192;2022-11-20T03:28:12;-2.60;99.90
16732;DHT22;8484;50.904;9.192;2022-11-20T03:31:05;-2.60;99.90
16732;DHT22;8484;50.904;9.192;2022-11-20T03:33:50;-2.50;99.90
16732;DHT22;8484;50.904;9.192;2022-11-20T03:36:37;-2.30;99.90
16732;DHT22;8484;50.904;9.192;2022-11-20T03:39:23;-2.30;99.90
16732;DHT22;8484;50.904;9.192;2022-11-20T03:42:08;-2.40;99.90
16732;DHT22;8484;50.904;9.192;2022-11-20T03:45:16;-2.40;99.90
16732;DHT22;8484;50.904;9.192;2022-11-20T03:48:04;-2.30;99.90
16732;DHT22;8484;50.904;9.192;2022-11-20T03:50:50;-2.20;99.90
16732;DHT22;8484;50.904;9.192;2022-11-20T03:53:35;-2.20;99.90
16732;DHT22;8484;50.904;9.192;2022-11-20T03:56:24;-2.20;99.90
16732;DHT22;8484;50.904;9.192;2022-11-20T03:59:10;-2.40;99.90
16732;DHT22;8484;50.904;9.192;2022-11-20T04:01:55;-2.40;99.90
16732;DHT22;8484;50.904;9.192;2022-11-20T04:04:42;-2.40;99.90
16732;DHT22;8484;50.904;9.192;2022-11-20T04:07:27;-2.40;99.90
16732;DHT22;8484;50.904;9.192;2022-11-20T04:10:13;-2.30;99.90
16732;DHT22;8484;50.904;9.192;2022-11-20T04:12:59;-2.30;99.90
16732;DHT22;8484;50.904;9.192;2022-11-20T04:15:44;-2.30;99.90
16732;DHT22;8484;50.904;9.192;2022-11-20T04:18:30;-2.10;99.90
16732;DHT22;8484;50.904;9.192;2022-11-20T04:21:17;-2.10;99.90
16732;DHT22;8484;50.904;9.192;2022-11-20T04:24:02;-2.00;99.90
16732;DHT22;8484;50.904;9.192;2022-11-20T04:26:48;-2.00;99.90
16732;DHT22;8484;50.904;9.192;2022-11-20T04:29:34;-2.00;99.90
16732;DHT22;8484;50.904;9.192;2022-11-20T04:32:19;-2.00;99.90
16732;DHT22;8484;50.904;9.192;2022-11-20T04:35:05;-2.10;99.90
16732;DHT22;8484;50.904;9.192;2022-11-20T04:37:52;-2.10;99.90
16732;DHT22;8484;50.904;9.192;2022-11-20T04:40:38;-2.10;99.90
16732;DHT22;8484;50.904;9.192;2022-11-20T04:43:23;-2.20;99.90
16732;DHT22;8484;50.904;9.192;2022-11-20T04:46:09;-2.10;99.90
16732;DHT22;8484;50.904;9.192;2022-11-20T04:48:54;-2.00;99.90
16732;DHT22;8484;50.904;9.192;2022-11-20T04:51:40;-2.00;99.90
16732;DHT22;8484;50.904;9.192;2022-11-20T04:54:27;-2.10;99.90
16732;DHT22;8484;50.904;9.192;2022-11-20T04:57:14;-2.00;99.90
16732;DHT22;8484;50.904;9.192;2022-11-20T05:00:00;-2.00;99.90
16732;DHT22;8484;50.904;9.192;2022-11-20T05:02:46;-2.00;99.90
16732;DHT22;8484;50.904;9.192;2022-11-20T05:05:31;-2.00;99.90
16732;DHT22;8484;50.904;9.192;2022-11-20T05:08:17;-2.00;99.90
16732;DHT22;8484;50.904;9.192;2022-11-20T05:11:05;-2.00;99.90
16732;DHT22;8484;50.904;9.192;2022-11-20T05:13:51;-1.90;99.90
16732;DHT22;8484;50.904;9.192;2022-11-20T05:16:36;-1.80;99.90
16732;DHT22;8484;50.904;9.192;2022-11-20T05:19:22;-1.80;99.90
16732;DHT22;8484;50.904;9.192;2022-11-20T05:22:08;-1.80;99.90
16732;DHT22;8484;50.904;9.192;2022-11-20T05:24:53;-1.70;99.90
16732;DHT22;8484;50.904;9.192;2022-11-20T05:27:40;-1.60;99.90
16732;DHT22;8484;50.904;9.192;2022-11-20T05:30:26;-1.30;99.90
16732;DHT22;8484;50.904;9.192;2022-11-20T05:33:12;-1.50;99.90
16732;DHT22;8484;50.904;9.192;2022-11-20T05:35:58;-1.60;99.90
16732;DHT22;8484;50.904;9.192;2022-11-20T05:38:45;-1.60;99.90
16732;DHT22;8484;50.904;9.192;2022-11-20T05:41:32;-1.50;99.90
16732;DHT22;8484;50.904;9.192;2022-11-20T05:44:19;-1.50;99.90
16732;DHT22;8484;50.904;9.192;2022-11-20T05:47:05;-1.50;99.90
16732;DHT22;8484;50.904;9.192;2022-11-20T05:49:50;-1.40;99.90
16732;DHT22;8484;50.904;9.192;2022-11-20T05:52:36;-1.40;99.90
16732;DHT22;8484;50.904;9.192;2022-11-20T05:55:21;-1.30;99.90
16732;DHT22;8484;50.904;9.192;2022-11-20T05:58:07;-1.30;99.90
16732;DHT22;8484;50.904;9.192;2022-11-20T06:00:54;-0.90;99.90
16732;DHT22;8484;50.904;9.192;2022-11-20T06:03:40;-1.40;99.90
16732;DHT22;8484;50.904;9.192;2022-11-20T06:06:29;-1.50;99.90
16732;DHT22;8484;50.904;9.192;2022-11-20T06:09:15;-1.60;99.90
16732;DHT22;8484;50.904;9.192;2022-11-20T06:12:00;-1.40;99.90
16732;DHT22;8484;50.904;9.192;2022-11-20T06:14:46;-1.30;99.90
16732;DHT22;8484;50.904;9.192;2022-11-20T06:17:33;-0.30;99.90
16732;DHT22;8484;50.904;9.192;2022-11-20T06:20:18;-1.20;99.90
16732;DHT22;8484;50.904;9.192;2022-11-20T06:23:04;-1.20;99.90
16732;DHT22;8484;50.904;9.192;2022-11-20T06:25:49;-1.10;99.90
16732;DHT22;8484;50.904;9.192;2022-11-20T06:28:35;-1.20;99.90
16732;DHT22;8484;50.904;9.192;2022-11-20T06:31:23;-1.20;99.90
16732;DHT22;8484;50.904;9.192;2022-11-20T06:34:10;-1.30;99.90
16732;DHT22;8484;50.904;9.192;2022-11-20T06:36:55;-1.10;99.90
16732;DHT22;8484;50.904;9.192;2022-11-20T06:39:41;-1.20;99.90
16732;DHT22;8484;50.904;9.192;2022-11-20T06:42:27;-1.20;99.90
16732;DHT22;8484;50.904;9.192;2022-11-20T06:45:12;-1.20;99.90
16732;DHT22;8484;50.904;9.192;2022-11-20T06:47:58;-1.10;99.90
16732;DHT22;8484;50.904;9.192;2022-11-20T06:50:44;-1.10;99.90
16732;DHT22;8484;50.904;9.192;2022-11-20T06:53:30;-1.00;99.90
16732;DHT22;8484;50.904;9.192;2022-11-20T06:56:15;-1.20;99.90
16732;DHT22;8484;50.904;9.192;2022-11-20T06:59:04;-1.30;99.90
16732;DHT22;8484;50.904;9.192;2022-11-20T07:01:50;-1.30;99.90
16732;DHT22;8484;50.904;9.192;2022-11-20T07:04:36;-1.20;99.90
16732;DHT22;8484;50.904;9.192;2022-11-20T07:07:22;-1.20;99.90
16732;DHT22;8484;50.904;9.192;2022-11-20T07:10:09;-1.30;99.90
16732;DHT22;8484;50.904;9.192;2022-11-20T07:12:55;-1.30;99.90
16732;DHT22;8484;50.904;9.192;2022-11-20T07:15:40;-1.30;99.90
16732;DHT22;8484;50.904;9.192;2022-11-20T07:18:26;-1.20;99.90
16732;DHT22;8484;50.904;9.192;2022-11-20T07:21:11;-1.10;99.90
16732;DHT22;8484;50.904;9.192;2022-11-20T07:23:58;-1.10;99.90
16732;DHT22;8484;50.904;9.192;2022-11-20T07:26:46;-1.00;99.90
16732;DHT22;8484;50.904;9.192;2022-11-20T07:29:33;-1.00;99.90
16732;DHT22;8484;50.904;9.192;2022-11-20T07:32:18;-1.20;99.90
16732;DHT22;8484;50.904;9.192;2022-11-20T07:35:05;-0.20;99.90
16732;DHT22;8484;50.904;9.192;2022-11-20T07:37:50;-1.10;99.90
16732;DHT22;8484;50.904;9.192;2022-11-20T07:40:37;-1.10;99.90
16732;DHT22;8484;50.904;9.192;2022-11-20T07:43:22;-1.20;99.90
16732;DHT22;8484;50.904;9.192;2022-11-20T07:46:08;-1.20;99.90
16732;DHT22;8484;50.904;9.192;2022-11-20T07:48:54;-1.10;99.90
16732;DHT22;8484;50.904;9.192;2022-11-20T07:51:39;-1.20;99.90
16732;DHT22;8484;50.904;9.192;2022-11-20T07:54:25;-1.10;99.90
16732;DHT22;8484;50.904;9.192;2022-11-20T07:57:12;-1.00;99.90
16732;DHT22;8484;50.904;9.192;2022-11-20T07:59:57;-1.00;99.90
16732;DHT22;8484;50.904;9.192;2022-11-20T08:02:43;-1.00;99.90
16732;DHT22;8484;50.904;9.192;2022-11-20T08:05:28;-1.10;99.90
16732;DHT22;8484;50.904;9.192;2022-11-20T08:08:14;-1.10;99.90
16732;DHT22;8484;50.904;9.192;2022-11-20T08:10:59;-0.90;99.90
16732;DHT22;8484;50.904;9.192;2022-11-20T08:14:00;-1.10;99.90
16732;DHT22;8484;50.904;9.192;2022-11-20T08:16:58;-1.20;99.90
16732;DHT22;8484;50.904;9.192;2022-11-20T08:19:44;-1.30;99.90
16732;DHT22;8484;50.904;9.192;2022-11-20T08:22:29;-1.10;99.90
16732;DHT22;8484;50.904;9.192;2022-11-20T08:25:15;-0.40;99.90
16732;DHT22;8484;50.904;9.192;2022-11-20T08:28:02;-1.00;99.90
16732;DHT22;8484;50.904;9.192;2022-11-20T08:30:49;-1.00;99.90
16732;DHT22;8484;50.904;9.192;2022-11-20T08:33:35;-0.90;99.90
16732;DHT22;8484;50.904;9.192;2022-11-20T08:36:21;-0.90;99.90
16732;DHT22;8484;50.904;9.192;2022-11-20T08:39:07;-0.90;99.90
16732;DHT22;8484;50.904;9.192;2022-11-20T08:41:52;-0.90;99.90
16732;DHT22;8484;50.904;9.192;2022-11-20T08:44:38;-1.00;99.90
16732;DHT22;8484;50.904;9.192;2022-11-20T08:47:25;-1.00;99.90
16732;DHT22;8484;50.904;9.192;2022-11-20T08:50:11;-1.00;99.90
16732;DHT22;8484;50.904;9.192;2022-11-20T08:53:02;-0.90;99.90
16732;DHT22;8484;50.904;9.192;2022-11-20T08:55:47;-1.00;99.90
16732;DHT22;8484;50.904;9.192;2022-11-20T08:58:33;-0.90;99.90
16732;DHT22;8484;50.904;9.192;2022-11-20T09:01:18;-0.80;99.90
16732;DHT22;8484;50.904;9.192;2022-11-20T09:04:06;-0.80;99.90
16732;DHT22;8484;50.904;9.192;2022-11-20T09:06:52;-0.80;99.90
16732;DHT22;8484;50.904;9.192;2022-11-20T09:09:37;-0.80;99.90
16732;DHT22;8484;50.904;9.192;2022-11-20T09:12:22;-0.80;99.90
16732;DHT22;8484;50.904;9.192;2022-11-20T09:15:09;-0.20;99.90
16732;DHT22;8484;50.904;9.192;2022-11-20T09:17:56;-0.70;99.90
16732;DHT22;8484;50.904;9.192;2022-11-20T09:20:43;-0.70;99.90
16732;DHT22;8484;50.904;9.192;2022-11-20T09:23:32;-0.70;99.90
16732;DHT22;8484;50.904;9.192;2022-11-20T09:26:18;-0.60;99.90
16732;DHT22;8484;50.904;9.192;2022-11-20T09:29:03;-0.60;99.90
16732;DHT22;8484;50.904;9.192;2022-11-20T09:31:48;-0.60;99.90
16732;DHT22;8484;50.904;9.192;2022-11-20T09:34:34;-0.70;99.90
16732;DHT22;8484;50.904;9.192;2022-11-20T09:37:21;-0.60;99.90
16732;DHT22;8484;50.904;9.192;2022-11-20T09:40:19;-0.40;99.90
16732;DHT22;8484;50.904;9.192;2022-11-20T09:43:12;-0.30;99.90
16732;DHT22;8484;50.904;9.192;2022-11-20T09:46:08;-0.30;99.90
16732;DHT22;8484;50.904;9.192;2022-11-20T09:49:14;-0.30;99.90
16732;DHT22;8484;50.904;9.192;2022-11-20T09:52:14;-0.30;99.90
16732;DHT22;8484;50.904;9.192;2022-11-20T09:55:04;-0.30;99.90
16732;DHT22;8484;50.904;9.192;2022-11-20T09:57:54;-0.30;99.90
16732;DHT22;8484;50.904;9.192;2022-11-20T10:00:39;-0.30;99.90
16732;DHT22;8484;50.904;9.192;2022-11-20T10:03:38;-0.20;99.90
16732;DHT22;8484;50.904;9.192;2022-11-20T10:06:30;-0.10;99.90
16732;DHT22;8484;50.904;9.192;2022-11-20T10:09:21;0.10;99.90
16732;DHT22;8484;50.904;9.192;2022-11-20T10:12:17;0.20;99.90
16732;DHT22;8484;50.904;9.192;2022-11-20T10:15:12;0.30;99.90
16732;DHT22;8484;50.904;9.192;2022-11-20T10:18:17;0.40;99.90
16732;DHT22;8484;50.904;9.192;2022-11-20T10:21:13;0.30;99.90
16732;DHT22;8484;50.904;9.192;2022-11-20T10:24:16;0.30;99.90
16732;DHT22;8484;50.904;9.192;2022-11-20T10:30:18;0.30;99.90
16732;DHT22;8484;50.904;9.192;2022-11-20T10:33:11;0.40;99.90
16732;DHT22;8484;50.904;9.192;2022-11-20T10:36:05;0.30;99.90
16732;DHT22;8484;50.904;9.192;2022-11-20T10:38:58;0.50;99.90
16732;DHT22;8484;50.904;9.192;2022-11-20T10:41:46;0.70;99.90
16732;DHT22;8484;50.904;9.192;2022-11-20T10:44:36;0.60;99.90
16732;DHT22;8484;50.904;9.192;2022-11-20T10:47:41;1.00;99.90
16732;DHT22;8484;50.904;9.192;2022-11-20T10:50:26;1.10;99.90
16732;DHT22;8484;50.904;9.192;2022-11-20T10:53:22;1.10;99.90
16732;DHT22;8484;50.904;9.192;2022-11-20T10:56:17;1.20;99.90
16732;DHT22;8484;50.904;9.192;2022-11-20T10:59:16;1.20;99.90
16732;DHT22;8484;50.904;9.192;2022-11-20T11:02:16;1.40;99.90
16732;DHT22;8484;50.904;9.192;2022-11-20T11:05:12;1.40;99.90
16732;DHT22;8484;50.904;9.192;2022-11-20T11:08:01;1.20;99.90
16732;DHT22;8484;50.904;9.192;2022-11-20T11:10:51;1.30;99.90
16732;DHT22;8484;50.904;9.192;2022-11-20T11:13:38;1.20;99.90
16732;DHT22;8484;50.904;9.192;2022-11-20T11:16:25;1.60;99.90
16732;DHT22;8484;50.904;9.192;2022-11-20T11:19:12;1.20;99.90
16732;DHT22;8484;50.904;9.192;2022-11-20T11:21:59;1.20;99.90
16732;DHT22;8484;50.904;9.192;2022-11-20T11:24:52;1.30;99.90
16732;DHT22;8484;50.904;9.192;2022-11-20T11:27:45;1.40;99.90
16732;DHT22;8484;50.904;9.192;2022-11-20T11:30:42;1.30;99.90
16732;DHT22;8484;50.904;9.192;2022-11-20T11:33:29;1.30;99.90
16732;DHT22;8484;50.904;9.192;2022-11-20T11:36:19;1.40;99.90
16732;DHT22;8484;50.904;9.192;2022-11-20T11:39:11;1.40;99.90
16732;DHT22;8484;50.904;9.192;2022-11-20T11:42:00;1.50;99.90
16732;DHT22;8484;50.904;9.192;2022-11-20T11:44:47;1.50;99.90
16732;DHT22;8484;50.904;9.192;2022-11-20T11:47:53;1.30;99.90
16732;DHT22;8484;50.904;9.192;2022-11-20T11:50:48;1.30;99.90
16732;DHT22;8484;50.904;9.192;2022-11-20T11:53:39;1.50;99.90
16732;DHT22;8484;50.904;9.192;2022-11-20T11:56:28;1.70;99.90
16732;DHT22;8484;50.904;9.192;2022-11-20T11:59:21;1.60;99.90
16732;DHT22;8484;50.904;9.192;2022-11-20T12:02:23;1.60;99.90
16732;DHT22;8484;50.904;9.192;2022-11-20T12:05:18;1.80;99.90
16732;DHT22;8484;50.904;9.192;2022-11-20T12:08:06;1.70;99.90
16732;DHT22;8484;50.904;9.192;2022-11-20T12:10:59;1.80;99.90
16732;DHT22;8484;50.904;9.192;2022-11-20T12:13:52;1.80;99.90
16732;DHT22;8484;50.904;9.192;2022-11-20T12:16:40;1.80;99.90
16732;DHT22;8484;50.904;9.192;2022-11-20T12:19:26;1.60;99.90
16732;DHT22;8484;50.904;9.192;2022-11-20T12:22:18;1.60;99.90
16732;DHT22;8484;50.904;9.192;2022-11-20T12:25:08;1.70;99.90
16732;DHT22;8484;50.904;9.192;2022-11-20T12:31:24;1.70;99.90
16732;DHT22;8484;50.904;9.192;2022-11-20T12:34:22;1.70;99.90
16732;DHT22;8484;50.904;9.192;2022-11-20T12:37:19;1.80;99.90
16732;DHT22;8484;50.904;9.192;2022-11-20T12:40:20;1.80;99.90
16732;DHT22;8484;50.904;9.192;2022-11-20T12:43:15;2.00;99.90
16732;DHT22;8484;50.904;9.192;2022-11-20T12:46:28;2.00;99.90
16732;DHT22;8484;50.904;9.192;2022-11-20T12:49:26;2.10;99.90
16732;DHT22;8484;50.904;9.192;2022-11-20T12:52:22;2.20;99.90
16732;DHT22;8484;50.904;9.192;2022-11-20T12:55:20;2.20;99.90
16732;DHT22;8484;50.904;9.192;2022-11-20T12:58:12;2.10;99.90
16732;DHT22;8484;50.904;9.192;2022-11-20T13:01:07;2.10;99.90
16732;DHT22;8484;50.904;9.192;2022-11-20T13:07:29;2.00;99.90
16732;DHT22;8484;50.904;9.192;2022-11-20T13:10:20;1.90;99.90
16732;DHT22;8484;50.904;9.192;2022-11-20T13:13:14;1.90;99.90
16732;DHT22;8484;50.904;9.192;2022-11-20T13:16:05;1.80;99.90
16732;DHT22;8484;50.904;9.192;2022-11-20T13:18:52;1.80;99.90
16732;DHT22;8484;50.904;9.192;2022-11-20T13:21:42;1.70;99.90
16732;DHT22;8484;50.904;9.192;2022-11-20T13:24:31;1.70;99.90
16732;DHT22;8484;50.904;9.192;2022-11-20T13:27:21;1.80;99.90
16732;DHT22;8484;50.904;9.192;2022-11-20T13:30:15;1.90;99.90
16732;DHT22;8484;50.904;9.192;2022-11-20T13:33:06;1.70;99.90
16732;DHT22;8484;50.904;9.192;2022-11-20T13:35:56;1.60;99.90
16732;DHT22;8484;50.904;9.192;2022-11-20T13:38:46;1.50;99.90
16732;DHT22;8484;50.904;9.192;2022-11-20T13:41:34;1.60;99.90
16732;DHT22;8484;50.904;9.192;2022-11-20T13:44:25;1.50;99.90
16732;DHT22;8484;50.904;9.192;2022-11-20T13:47:20;1.50;99.90
16732;DHT22;8484;50.904;9.192;2022-11-20T13:50:09;1.40;99.90
16732;DHT22;8484;50.904;9.192;2022-11-20T13:53:01;1.30;99.90
16732;DHT22;8484;50.904;9.192;2022-11-20T13:55:54;1.20;99.90
16732;DHT22;8484;50.904;9.192;2022-11-20T13:58:52;1.20;99.90
16732;DHT22;8484;50.904;9.192;2022-11-20T14:01:39;1.10;99.90
16732;DHT22;8484;50.904;9.192;2022-11-20T14:04:28;1.20;99.90
16732;DHT22;8484;50.904;9.192;2022-11-20T14:07:14;1.30;99.90
16732;DHT22;8484;50.904;9.192;2022-11-20T14:10:00;1.20;99.90
16732;DHT22;8484;50.904;9.192;2022-11-20T14:12:47;1.30;99.90
16732;DHT22;8484;50.904;9.192;2022-11-20T14:15:34;1.20;99.90
16732;DHT22;8484;50.904;9.192;2022-11-20T14:18:21;1.20;99.90
16732;DHT22;8484;50.904;9.192;2022-11-20T14:21:09;1.20;99.90
16732;DHT22;8484;50.904;9.192;2022-11-20T14:24:03;1.20;99.90
16732;DHT22;8484;50.904;9.192;2022-11-20T14:26:50;1.30;99.90
16732;DHT22;8484;50.904;9.192;2022-11-20T14:29:38;1.20;99.90
16732;DHT22;8484;50.904;9.192;2022-11-20T14:32:28;1.50;99.90
16732;DHT22;8484;50.904;9.192;2022-11-20T14:35:19;1.30;99.90
16732;DHT22;8484;50.904;9.192;2022-11-20T14:38:11;1.30;99.90
16732;DHT22;8484;50.904;9.192;2022-11-20T14:41:06;1.30;99.90
16732;DHT22;8484;50.904;9.192;2022-11-20T14:43:55;1.50;99.90
16732;DHT22;8484;50.904;9.192;2022-11-20T14:46:43;1.40;99.90
16732;DHT22;8484;50.904;9.192;2022-11-20T14:49:30;1.30;99.90
16732;DHT22;8484;50.904;9.192;2022-11-20T14:52:18;1.30;99.90
16732;DHT22;8484;50.904;9.192;2022-11-20T14:55:04;1.70;99.90
16732;DHT22;8484;50.904;9.192;2022-11-20T14:57:55;1.30;99.90
16732;DHT22;8484;50.904;9.192;2022-11-20T15:00:41;1.30;99.90
16732;DHT22;8484;50.904;9.192;2022-11-20T15:03:36;1.30;99.90
16732;DHT22;8484;50.904;9.192;2022-11-20T15:06:26;1.30;99.90
16732;DHT22;8484;50.904;9.192;2022-11-20T15:09:13;1.30;99.90
16732;DHT22;8484;50.904;9.192;2022-11-20T15:12:01;1.30;99.90
16732;DHT22;8484;50.904;9.192;2022-11-20T15:14:47;1.40;99.90
16732;DHT22;8484;50.904;9.192;2022-11-20T15:17:35;1.30;99.90
16732;DHT22;8484;50.904;9.192;2022-11-20T15:20:26;1.40;99.90
16732;DHT22;8484;50.904;9.192;2022-11-20T15:23:14;1.40;99.90
16732;DHT22;8484;50.904;9.192;2022-11-20T15:25:59;1.40;99.90
16732;DHT22;8484;50.904;9.192;2022-11-20T15:28:46;1.40;99.90
16732;DHT22;8484;50.904;9.192;2022-11-20T15:31:33;1.40;99.90
16732;DHT22;8484;50.904;9.192;2022-11-20T15:34:19;1.40;99.90
16732;DHT22;8484;50.904;9.192;2022-11-20T15:37:05;1.40;99.90
16732;DHT22;8484;50.904;9.192;2022-11-20T15:39:51;1.40;99.90
16732;DHT22;8484;50.904;9.192;2022-11-20T15:42:36;1.30;99.90
16732;DHT22;8484;50.904;9.192;2022-11-20T15:45:22;1.30;99.90
16732;DHT22;8484;50.904;9.192;2022-11-20T15:48:10;1.30;99.90
16732;DHT22;8484;50.904;9.192;2022-11-20T15:50:59;1.40;99.90
16732;DHT22;8484;50.904;9.192;2022-11-20T15:53:47;1.70;99.90
16732;DHT22;8484;50.904;9.192;2022-11-20T15:56:32;1.60;99.90
16732;DHT22;8484;50.904;9.192;2022-11-20T15:59:18;1.60;99.90
16732;DHT22;8484;50.904;9.192;2022-11-20T16:02:07;1.50;99.90
16732;DHT22;8484;50.904;9.192;2022-11-20T16:04:53;1.40;99.90
16732;DHT22;8484;50.904;9.192;2022-11-20T16:07:39;1.40;99.90
16732;DHT22;8484;50.904;9.192;2022-11-20T16:10:26;1.40;99.90
16732;DHT22;8484;50.904;9.192;2022-11-20T16:13:13;1.50;99.90
16732;DHT22;8484;50.904;9.192;2022-11-20T16:16:19;1.40;99.90
16732;DHT22;8484;50.904;9.192;2022-11-20T16:19:08;1.30;99.90
16732;DHT22;8484;50.904;9.192;2022-11-20T16:21:54;1.30;99.90
16732;DHT22;8484;50.904;9.192;2022-11-20T16:24:40;1.20;99.90
16732;DHT22;8484;50.904;9.192;2022-11-20T16:27:26;1.10;99.90
16732;DHT22;8484;50.904;9.192;2022-11-20T16:30:12;1.10;99.90
16732;DHT22;8484;50.904;9.192;2022-11-20T16:32:58;1.10;99.90
16732;DHT22;8484;50.904;9.192;2022-11-20T16:35:44;1.10;99.90
16732;DHT22;8484;50.904;9.192;2022-11-20T16:38:29;1.10;99.90
16732;DHT22;8484;50.904;9.192;2022-11-20T16:41:14;1.10;99.90
16732;DHT22;8484;50.904;9.192;2022-11-20T16:44:06;1.10;99.90
16732;DHT22;8484;50.904;9.192;2022-11-20T16:46:52;1.10;99.90
16732;DHT22;8484;50.904;9.192;2022-11-20T16:49:37;1.20;99.90
16732;DHT22;8484;50.904;9.192;2022-11-20T16:52:23;1.10;99.90
16732;DHT22;8484;50.904;9.192;2022-11-20T16:55:08;1.10;99.90
16732;DHT22;8484;50.904;9.192;2022-11-20T16:57:54;1.10;99.90
16732;DHT22;8484;50.904;9.192;2022-11-20T17:00:41;1.10;99.90
16732;DHT22;8484;50.904;9.192;2022-11-20T17:03:26;1.20;99.90
16732;DHT22;8484;50.904;9.192;2022-11-20T17:06:13;1.20;99.90
16732;DHT22;8484;50.904;9.192;2022-11-20T17:08:59;1.20;99.90
16732;DHT22;8484;50.904;9.192;2022-11-20T17:11:44;1.10;99.90
16732;DHT22;8484;50.904;9.192;2022-11-20T17:14:30;1.20;99.90
16732;DHT22;8484;50.904;9.192;2022-11-20T17:17:17;1.20;99.90
16732;DHT22;8484;50.904;9.192;2022-11-20T17:20:03;1.20;99.90
16732;DHT22;8484;50.904;9.192;2022-11-20T17:22:49;1.20;99.90
16732;DHT22;8484;50.904;9.192;2022-11-20T17:25:35;1.20;99.90
16732;DHT22;8484;50.904;9.192;2022-11-20T17:28:20;1.90;99.90
16732;DHT22;8484;50.904;9.192;2022-11-20T17:31:08;1.30;99.90
16732;DHT22;8484;50.904;9.192;2022-11-20T17:33:55;1.60;99.90
16732;DHT22;8484;50.904;9.192;2022-11-20T17:36:43;1.30;99.90
16732;DHT22;8484;50.904;9.192;2022-11-20T17:39:29;1.40;99.90
16732;DHT22;8484;50.904;9.192;2022-11-20T17:42:14;1.40;99.90
16732;DHT22;8484;50.904;9.192;2022-11-20T17:45:12;1.30;99.90
16732;DHT22;8484;50.904;9.192;2022-11-20T17:47:58;1.30;99.90
16732;DHT22;8484;50.904;9.192;2022-11-20T17:50:45;1.40;99.90
16732;DHT22;8484;50.904;9.192;2022-11-20T17:53:33;1.40;99.90
16732;DHT22;8484;50.904;9.192;2022-11-20T17:56:19;2.10;99.90
16732;DHT22;8484;50.904;9.192;2022-11-20T17:59:22;1.50;99.90
16732;DHT22;8484;50.904;9.192;2022-11-20T18:02:08;1.60;99.90
16732;DHT22;8484;50.904;9.192;2022-11-20T18:04:54;1.60;99.90
16732;DHT22;8484;50.904;9.192;2022-11-20T18:07:41;1.60;99.90
16732;DHT22;8484;50.904;9.192;2022-11-20T18:10:28;1.60;99.90
16732;DHT22;8484;50.904;9.192;2022-11-20T18:13:13;1.60;99.90
16732;DHT22;8484;50.904;9.192;2022-11-20T18:16:05;1.60;99.90
16732;DHT22;8484;50.904;9.192;2022-11-20T18:18:53;1.60;99.90